Altisurface de La Taillade

FR-0290 · Auvergne-Rhône-Alpes, Francia

2 de octubre de 2022

Hora Código Tiempo Temp. Visibilidad Cielo nuboso Viento METAR/SPECI
20:30
V
13 °C 10 km+ - 280° 280° 5 kt METAR LFHP 021830Z AUTO 28005KT 240V310 CAVOK 13/09 Q1026
20:00
V
14 °C 10 km+ - 290° 290° 4 kt METAR LFHP 021800Z AUTO 29004KT 250V320 CAVOK 14/09 Q1026
19:30
V
15 °C 10 km+ - 290° 290° 5 kt METAR LFHP 021730Z AUTO 29005KT CAVOK 15/10 Q1025
19:00
V
16 °C 10 km+ - 310° 310° 6 kt METAR LFHP 021700Z AUTO 31006KT CAVOK 16/09 Q1026
18:30
V
17 °C 10 km+ - 310° 310° 7 kt METAR LFHP 021630Z AUTO 31007KT CAVOK 17/10 Q1025
18:00
V
18 °C 10 km+ - 300° 300° 10 kt METAR LFHP 021600Z AUTO 30010KT 260V330 CAVOK 18/10 Q1025
17:30
V
19 °C 10 km+ - 300° 300° 9 kt METAR LFHP 021530Z AUTO 30009KT 260V320 CAVOK 19/09 Q1025
17:00
V
18 °C 10 km+ - 290° 290° 8 kt METAR LFHP 021500Z AUTO 29008KT 240V320 CAVOK 18/09 Q1026
16:30
V
18 °C 10 km+ - 290° 290° 8 kt METAR LFHP 021430Z AUTO 29008KT 240V320 CAVOK 18/09 Q1026
16:00
V
19 °C 10 km+ - 290° 290° 8 kt METAR LFHP 021400Z AUTO 29008KT 240V340 CAVOK 19/09 Q1026
15:30
V
19 °C 10 km+ - 280° 280° 9 kt METAR LFHP 021330Z AUTO 28009KT 220V330 9999 SCT040 SCT240 19/09 Q1026
15:00
V
19 °C 10 km+ - 270° 270° 6 kt METAR LFHP 021300Z AUTO 27006KT 230V320 9999 FEW038 19/11 Q1026
14:30
V
19 °C 10 km+ 23.000 ft 290° 290° 9 kt METAR LFHP 021230Z AUTO 29009KT 240V330 9999 SCT039 BKN230 19/10 Q1026
14:00
V
19 °C 10 km+ - 280° 280° 11 kt METAR LFHP 021200Z AUTO 28011KT 230V320 9999 FEW037 19/11 Q1026
13:30
V
19 °C 10 km+ - 290° 290° 12 kt METAR LFHP 021130Z AUTO 29012KT 240V320 CAVOK 19/10 Q1027
13:00
V
18 °C 10 km+ - 270° 270° 10 kt METAR LFHP 021100Z AUTO 27010KT 240V310 CAVOK 18/10 Q1027
12:30
V
18 °C 10 km+ - 290° 290° 11 kt METAR LFHP 021030Z AUTO 29011KT 240V330 CAVOK 18/10 Q1027
12:00
V
17 °C 10 km+ - 290° 290° 9 kt METAR LFHP 021000Z AUTO 29009KT 240V330 CAVOK 17/09 Q1027
11:30
V
17 °C 10 km+ - 270° 270° 13 kt METAR LFHP 020930Z AUTO 27013KT 230V310 CAVOK 17/09 Q1027
11:00
V
16 °C 10 km+ - 270° 270° 9 kt METAR LFHP 020900Z AUTO 27009KT 220V320 CAVOK 16/10 Q1027
10:30
V
16 °C 10 km+ - 270° 270° 8 kt METAR LFHP 020830Z AUTO 27008KT 210V310 CAVOK 16/11 Q1027
10:00
V
16 °C 10 km+ - 280° 280° 7 kt METAR LFHP 020800Z AUTO 28007KT 230V330 CAVOK 16/11 Q1027
09:30
V
15 °C 10 km+ - 270° 270° 7 kt METAR LFHP 020730Z AUTO 27007KT 230V320 CAVOK 15/11 Q1027
09:00
V
13 °C 10 km+ - 260° 260° 3 kt METAR LFHP 020700Z AUTO 26003KT 180V330 CAVOK 13/11 Q1026

1 de octubre de 2022

Hora Código Tiempo Temp. Visibilidad Cielo nuboso Viento METAR/SPECI
21:00
M
15 °C 10 km+ 2.700 ft 240° 240° 3 kt METAR LFHP 011900Z AUTO 24003KT 210V290 9999 OVC027 15/12 Q1025
20:30
M
15 °C 10 km+ 2.700 ft 240° 240° 3 kt METAR LFHP 011830Z AUTO 24003KT 200V280 9999 OVC027 15/11 Q1024
20:00
M
15 °C 10 km+ 2.800 ft 240° 240° 3 kt METAR LFHP 011800Z AUTO 24003KT 200V300 9999 OVC028 15/11 Q1024
19:30
M
15 °C 10 km+ 2.800 ft 240° 240° 6 kt METAR LFHP 011730Z AUTO 24006KT 190V290 9999 BKN028 OVC034 15/11 Q1023
19:00
M
15 °C 10 km+ 2.500 ft 230° 230° 8 kt METAR LFHP 011700Z AUTO 23008KT 190V300 9999 OVC025 15/11 Q1023
18:30
M
15 °C 10 km+ 2.500 ft 220° 220° 7 kt METAR LFHP 011630Z AUTO 22007KT 190V250 9999 OVC025 15/11 Q1023
18:00
M
16 °C 10 km+ 2.900 ft 240° 240° 7 kt METAR LFHP 011600Z AUTO 24007KT 200V290 9999 FEW010 BKN029 OVC036 16/11 Q1023
17:30
V
16 °C 10 km+ 3.500 ft 270° 270° 7 kt METAR LFHP 011530Z AUTO 27007KT 220V300 9999 FEW029 BKN035 BKN041 16/11 Q1022
17:00
M
16 °C 10 km+ 2.900 ft 280° 280° 9 kt METAR LFHP 011500Z AUTO 28009KT 250V320 9999 BKN029 OVC037 16/11 Q1022
16:30
M
15 °C 10 km+ 2.700 ft 240° 240° 7 kt METAR LFHP 011430Z AUTO 24007KT 220V280 9999 BKN027 OVC033 15/11 Q1022
16:00
M
15 °C 10 km+ 2.600 ft 250° 250° 7 kt METAR LFHP 011400Z AUTO 25007KT 210V290 9999 -RA FEW007 BKN026 OVC035 15/11 Q1022
15:30
M
16 °C 10 km+ 2.700 ft 240° 240° 11 kt METAR LFHP 011330Z AUTO 24011KT 210V290 9999 OVC027 16/11 Q1021
15:00
M
15 °C 10 km+ 2.900 ft 230° 230° 11 kt METAR LFHP 011300Z AUTO 23011KT 200V260 9999 OVC029 15/11 Q1021
14:30
V
16 °C 10 km+ 3.000 ft 240° 240° 10 kt METAR LFHP 011230Z AUTO 24010KT 210V280 9999 BKN030 OVC064 16/11 Q1021
14:00
V
16 °C 10 km+ - 250° 250° 15 kt METAR LFHP 011200Z AUTO 25015KT 210V300 CAVOK 16/10 Q1021
13:30
V
15 °C 10 km+ - 250° 250° 17 - 27 kt METAR LFHP 011130Z AUTO 25017G27KT 220V280 CAVOK 15/10 Q1020
13:00
V
16 °C 10 km+ 9.200 ft 260° 260° 12 - 24 kt METAR LFHP 011100Z AUTO 26012G24KT 200V300 9999 FEW031 BKN092 BKN120 16/10 Q1020
12:30
V
14 °C 10 km+ - 250° 250° 15 - 28 kt METAR LFHP 011030Z AUTO 25015G28KT 210V310 CAVOK 14/09 Q1020
12:00
V
13 °C 10 km+ 9.800 ft 240° 240° 12 kt METAR LFHP 011000Z AUTO 24012KT 200V280 9999 FEW036 BKN098 OVC130 13/09 Q1020
11:30
V
13 °C 10 km+ 3.500 ft 250° 250° 9 kt METAR LFHP 010930Z AUTO 25009KT 210V300 9999 FEW021 OVC035 13/09 Q1020
11:00
V
12 °C 10 km+ 6.600 ft 260° 260° 10 kt METAR LFHP 010900Z AUTO 26010KT 220V300 9999 SCT035 OVC066 12/09 Q1020
10:30
V
11 °C 10 km+ - 260° 260° 10 kt METAR LFHP 010830Z AUTO 26010KT 210V330 CAVOK 11/08 Q1020
10:00
V
11 °C 10 km+ 7.000 ft Var Var 4 kt METAR LFHP 010800Z AUTO VRB04KT 9999 FEW020 SCT037 OVC070 11/08 Q1020
09:30
V
10 °C 10 km+ 7.200 ft Var Var 2 kt METAR LFHP 010730Z AUTO VRB02KT 9999 FEW016 BKN072 BKN082 10/08 Q1020
09:00
V
8 °C 10 km+ 7.000 ft Var Var 2 kt METAR LFHP 010700Z AUTO VRB02KT 9999 -RA FEW020 SCT054 BKN070 08/07 Q1019

30 de septiembre de 2022

Hora Código Tiempo Temp. Visibilidad Cielo nuboso Viento METAR/SPECI
21:00
V
5 °C 10 km+ - 260° 260° 3 kt METAR LFHP 301900Z AUTO 26003KT CAVOK 05/02 Q1016
20:30
V
7 °C 10 km+ - 260° 260° 4 kt METAR LFHP 301830Z AUTO 26004KT 9999 FEW043 07/03 Q1016
20:00
V
8 °C 10 km+ - 280° 280° 3 kt METAR LFHP 301800Z AUTO 28003KT CAVOK 08/03 Q1016
19:30
V
9 °C 10 km+ - 330° 330° 4 kt METAR LFHP 301730Z AUTO 33004KT CAVOK 09/04 Q1015
19:00
V
10 °C 10 km+ - 330° 330° 7 kt METAR LFHP 301700Z AUTO 33007KT CAVOK 10/04 Q1015
18:30
V
11 °C 10 km+ - 320° 320° 9 kt METAR LFHP 301630Z AUTO 32009KT CAVOK 11/05 Q1014
18:00
V
11 °C 10 km+ - 320° 320° 8 kt METAR LFHP 301600Z AUTO 32008KT 280V340 CAVOK 11/05 Q1014
17:30
V
11 °C 10 km+ 4.400 ft 300° 300° 9 kt METAR LFHP 301530Z AUTO 30009KT 9999 SCT033 BKN044 OVC050 11/05 Q1014
17:00
V
11 °C 10 km+ 3.100 ft 320° 320° 9 kt METAR LFHP 301500Z AUTO 32009KT 280V340 9999 BKN031 BKN044 BKN050 11/04 Q1013
Datos más antiguos

Nosotros y terceros seguimos tu comportamiento en Internet en nuestro sitio web con cookies. Si continúas, asumimos que estás de acuerdo con nuestra política de cookies. Más información